»·PEaware :: SKY350 S59-KSZT

SKY350 :: S59-KSZT

FLIGHT INFORMATION

Flight Status: Arrived
Operator:
Sky High Charters
More flights by this operator :: More flights under this callsign
Pilot: Jacek M. (26729)
Aircraft: BEECH AIRCRAFT BONANZA
(BE35)
More flights by this aircraft type
Origin: S59 Libby
United States
Destination: KSZT Sandpoint
United States
More flights between these airports :: More routes between these airports
Route: EYESE1 EYESE V448 CLASS
File this flight plan on PilotEdge
Remarks: +CW / SKY HIGH CHARTERS - SCENARIO 6 - leg 1
Altitude:
(Current/Filed)
12,000ft
Speed:
(Current/Filed)
220kts
Departed: 14-Mar-20 02:44 PM
Arrived: 14-Mar-20 03:15 PM
Distance/Time
Traveled:
43nm/0:31
Distance/Time
To Go:
Arrived

Flight Plot

Page will automatically refresh every two minutes.

Flight plan parsing failed; only flown route is shown


Map Options




Map Legend


Flown Route
Filed Route
Departure Airport
Arrival Airport
Navaid (VOR, NDB)
Fix

Horizontal Profiles

Position Reports

Time Latitude Longitude Heading Altitude Ground
Speed
14-Mar-20 14:28 48.285881 -115.489684 251 2605ft 0kts
14-Mar-20 14:30 48.285880 -115.489686 251 2605ft 0kts
14-Mar-20 14:30 48.285880 -115.489688 251 2605ft 0kts
14-Mar-20 14:31 48.285880 -115.489690 251 2605ft 0kts
14-Mar-20 14:33 48.285879 -115.489692 251 2605ft 0kts
14-Mar-20 14:33 48.285879 -115.489693 251 2605ft 0kts
14-Mar-20 14:34 48.285879 -115.489695 251 2605ft 0kts
14-Mar-20 14:35 48.285878 -115.489697 251 2605ft 0kts
14-Mar-20 14:36 48.284673 -115.489969 263 2605ft 0kts
14-Mar-20 14:37 48.284673 -115.489974 263 2605ft 0kts
14-Mar-20 14:38 48.284672 -115.489983 263 2605ft 0kts
14-Mar-20 14:39 48.284672 -115.489985 263 2605ft 0kts
14-Mar-20 14:40 48.284649 -115.490278 264 2605ft 8kts
14-Mar-20 14:41 48.290273 -115.492779 162 2605ft 6kts
14-Mar-20 14:42 48.290145 -115.492711 165 2605ft 0kts
14-Mar-20 14:43 48.259631 -115.479508 162 4490ft 144kts
14-Mar-20 14:45 48.215008 -115.461390 164 8823ft 152kts
14-Mar-20 14:45 48.179322 -115.448223 163 11789ft 165kts
14-Mar-20 14:46 48.118934 -115.424167 166 11981ft 252kts
14-Mar-20 14:47 48.049911 -115.398935 166 11932ft 257kts
14-Mar-20 14:48 47.989210 -115.422046 247 12128ft 244kts
14-Mar-20 14:49 47.970042 -115.520710 257 12025ft 246kts
14-Mar-20 14:50 47.953948 -115.620271 258 11947ft 248kts
14-Mar-20 14:51 47.937253 -115.720836 258 12102ft 250kts
14-Mar-20 14:52 47.917944 -115.821295 256 12083ft 252kts
14-Mar-20 14:53 47.898866 -115.922197 253 11967ft 255kts
14-Mar-20 14:54 47.877761 -116.021232 255 12183ft 249kts
14-Mar-20 14:55 47.858076 -116.121195 255 12145ft 256kts
14-Mar-20 14:56 47.845139 -116.224333 261 11944ft 253kts
14-Mar-20 14:57 47.829488 -116.325767 260 12019ft 252kts
14-Mar-20 14:58 47.815869 -116.428476 261 11920ft 251kts
14-Mar-20 14:59 47.802073 -116.530203 257 11963ft 251kts
14-Mar-20 15:00 47.791231 -116.632366 262 12045ft 250kts
14-Mar-20 15:01 47.780388 -116.735105 261 11921ft 252kts
14-Mar-20 15:02 47.797920 -116.823535 333 12179ft 239kts
14-Mar-20 15:03 47.863869 -116.809652 13 12039ft 246kts
14-Mar-20 15:04 47.931603 -116.792674 3 11633ft 249kts
14-Mar-20 15:05 47.998929 -116.781561 8 9266ft 239kts
14-Mar-20 15:06 48.062075 -116.768637 6 7162ft 211kts
14-Mar-20 15:07 48.108847 -116.739974 41 6452ft 178kts
14-Mar-20 15:08 48.147381 -116.694927 28 5542ft 165kts
14-Mar-20 15:09 48.181838 -116.668516 17 5290ft 123kts
14-Mar-20 15:10 48.213640 -116.641025 29 5117ft 133kts
14-Mar-20 15:11 48.244505 -116.610991 36 4384ft 134kts
14-Mar-20 15:12 48.271840 -116.585832 28 3469ft 102kts
14-Mar-20 15:13 48.299335 -116.560357 27 2135ft 97kts
14-Mar-20 15:14 48.303388 -116.555765 136 2135ft 0kts
14-Mar-20 15:16 48.302717 -116.556145 212 2135ft 25kts
14-Mar-20 15:16 48.297238 -116.560686 125 2135ft 3kts
14-Mar-20 15:17 48.297154 -116.560477 121 2135ft 0kts
14-Mar-20 15:18 48.297153 -116.560475 121 2135ft 0kts
14-Mar-20 15:19 48.297153 -116.560473 121 2135ft 0kts
14-Mar-20 15:20 48.297152 -116.560472 121 2135ft 0kts
14-Mar-20 15:21 48.297151 -116.560470 121 2135ft 0kts
14-Mar-20 15:22 48.297151 -116.560468 121 2135ft 0kts
14-Mar-20 15:23 48.297150 -116.560466 121 2135ft 0kts
14-Mar-20 15:24 48.297149 -116.560465 121 2135ft 0kts

Navigation Log

Ident Type
Flight plan parsing failed, navigation log unavailable